Time;durP1;ratioP1;P1;durP2;ratioP2;P2;SDS_P1;SDS_P2;PMS_P1;PMS_P2;Temp;Humidity;BMP_temperature;BMP_pressure;BME280_temperature;BME280_humidity;BME280_pressure;Samples;Min_cycle;Max_cycle;Signal;HPM_P1;HPM_P2
2023/11/09 00:02:04;;;;;;;3.50;2.77;;;7.40;1.00;;;;;;5127822;27;20462;-69
2023/11/09 00:04:32;;;;;;;3.10;2.60;;;7.30;1.00;;;;;;5131895;27;20513;-70
2023/11/09 00:07:00;;;;;;;4.33;2.23;;;7.30;1.00;;;;;;5149816;27;20882;-69
2023/11/09 00:09:26;;;;;;;3.40;2.40;;;7.30;1.00;;;;;;5147993;27;20471;-69
2023/11/09 00:11:53;;;;;;;5.53;3.00;;;7.20;1.00;;;;;;5129023;27;20456;-70
2023/11/09 00:14:20;;;;;;;6.50;2.17;;;7.20;1.00;;;;;;5130783;27;20230;-77
2023/11/09 00:16:49;;;;;;;3.00;2.03;;;7.30;1.00;;;;;;5143089;27;20492;-68
2023/11/09 00:19:16;;;;;;;4.60;2.40;;;7.20;1.00;;;;;;5133524;27;20568;-73
2023/11/09 00:21:44;;;;;;;4.22;3.00;;;7.20;1.00;;;;;;5129474;27;20457;-74
2023/11/09 00:24:11;;;;;;;5.20;2.40;;;7.20;1.00;;;;;;5125438;27;21031;-68
2023/11/09 00:26:41;;;;;;;2.93;2.67;;;7.20;1.00;;;;;;5138574;27;21183;-68
2023/11/09 00:29:08;;;;;;;5.50;2.30;;;7.20;1.00;;;;;;5126204;27;21020;-80
2023/11/09 00:31:35;;;;;;;2.30;2.07;;;7.20;1.00;;;;;;5124866;27;20520;-68
2023/11/09 00:34:03;;;;;;;2.50;2.20;;;7.30;1.00;;;;;;5131300;27;20481;-69
2023/11/09 00:36:30;;;;;;;2.40;1.93;;;7.30;1.00;;;;;;5126570;27;20493;-71
2023/11/09 00:38:58;;;;;;;2.97;1.77;;;7.30;1.00;;;;;;5128776;27;20513;-68
2023/11/09 00:41:25;;;;;;;2.90;2.27;;;7.30;1.00;;;;;;5127225;27;21412;-69
2023/11/09 00:43:52;;;;;;;2.77;2.50;;;7.30;1.00;;;;;;5126006;27;20460;-69
2023/11/09 00:46:21;;;;;;;3.80;2.20;;;7.30;1.00;;;;;;5129262;27;20533;-68
2023/11/09 00:48:47;;;;;;;2.30;2.10;;;7.30;1.00;;;;;;5132891;27;20994;-70
2023/11/09 00:51:14;;;;;;;3.95;2.60;;;7.30;1.00;;;;;;5146206;27;21313;-69
2023/11/09 00:53:41;;;;;;;3.17;2.73;;;7.20;1.00;;;;;;5131065;27;21192;-68
2023/11/09 00:56:10;;;;;;;2.63;2.43;;;7.20;1.00;;;;;;5132816;27;20559;-69
2023/11/09 00:58:37;;;;;;;4.93;2.67;;;7.20;1.00;;;;;;5128711;27;20452;-68
2023/11/09 01:01:04;;;;;;;2.45;2.20;;;7.30;1.00;;;;;;5123870;27;20513;-70
2023/11/09 01:03:31;;;;;;;2.57;2.37;;;7.20;1.00;;;;;;5150527;27;20339;-67
2023/11/09 01:06:00;;;;;;;3.37;2.10;;;7.20;1.00;;;;;;5135952;27;20424;-68
2023/11/09 01:08:28;;;;;;;2.10;1.90;;;7.20;1.00;;;;;;5146216;27;20460;-70
2023/11/09 01:10:57;;;;;;;2.88;2.65;;;7.30;1.00;;;;;;5150941;27;21007;-73
2023/11/09 01:13:25;;;;;;;2.43;1.90;;;7.20;1.00;;;;;;5131293;27;20340;-69
2023/11/09 01:15:52;;;;;;;5.13;3.10;;;7.30;1.00;;;;;;5129401;27;20619;-69
2023/11/09 01:18:19;;;;;;;2.37;2.17;;;7.30;1.00;;;;;;5127896;27;20479;-70
2023/11/09 01:20:46;;;;;;;2.80;2.33;;;7.40;1.00;;;;;;5128789;27;20538;-69
2023/11/09 01:23:12;;;;;;;4.70;2.20;;;7.40;1.00;;;;;;5130924;27;20321;-72
2023/11/09 01:25:39;;;;;;;5.20;2.80;;;7.50;1.00;;;;;;5129189;27;20310;-69
2023/11/09 01:28:07;;;;;;;3.80;2.70;;;7.40;1.00;;;;;;5135990;27;20506;-71
2023/11/09 01:30:35;;;;;;;6.93;2.83;;;7.40;1.00;;;;;;5142138;27;20452;-70
2023/11/09 01:33:03;;;;;;;3.97;1.93;;;7.40;1.00;;;;;;5140424;27;21231;-70
2023/11/09 01:35:30;;;;;;;3.10;2.47;;;7.30;1.00;;;;;;5148535;27;21056;-70
2023/11/09 01:37:58;;;;;;;2.40;2.20;;;7.30;1.00;;;;;;5147656;27;20455;-69
2023/11/09 01:40:26;;;;;;;4.03;2.65;;;7.40;1.00;;;;;;5148756;27;20452;-68
2023/11/09 01:42:54;;;;;;;3.17;2.00;;;7.40;1.00;;;;;;5146221;27;21022;-70
2023/11/09 01:45:21;;;;;;;2.47;2.27;;;7.40;1.00;;;;;;5144295;27;20990;-70
2023/11/09 01:47:48;;;;;;;4.20;2.40;;;7.40;1.00;;;;;;5148885;27;20471;-68
2023/11/09 01:50:16;;;;;;;2.60;2.17;;;7.40;1.00;;;;;;5146597;27;20463;-70
2023/11/09 01:52:43;;;;;;;3.17;1.97;;;7.50;1.00;;;;;;5147383;27;20768;-70
2023/11/09 01:55:11;;;;;;;2.90;2.37;;;7.50;1.00;;;;;;5147798;27;20461;-71
2023/11/09 01:57:41;;;;;;;2.17;1.90;;;7.50;1.00;;;;;;5135960;27;20535;-69
2023/11/09 02:00:11;;;;;;;2.90;2.47;;;7.50;1.00;;;;;;5139836;27;20468;-69
2023/11/09 02:02:38;;;;;;;2.40;2.20;;;7.50;1.00;;;;;;5146288;27;20464;-70
2023/11/09 02:05:07;;;;;;;3.20;2.27;;;7.50;1.00;;;;;;5137115;27;20447;-70
2023/11/09 02:07:36;;;;;;;2.83;2.27;;;7.40;1.00;;;;;;5148688;27;20504;-70
2023/11/09 02:10:04;;;;;;;2.10;1.90;;;7.50;1.00;;;;;;5150639;27;20475;-70
2023/11/09 02:12:31;;;;;;;3.53;2.33;;;7.40;1.00;;;;;;5144315;27;20475;-71
2023/11/09 02:14:58;;;;;;;3.53;2.27;;;7.40;1.00;;;;;;5144751;27;20547;-70
2023/11/09 02:17:25;;;;;;;3.20;2.13;;;7.50;1.00;;;;;;5148668;27;20561;-70
2023/11/09 02:19:52;;;;;;;2.77;2.47;;;7.40;1.00;;;;;;5149440;27;21230;-70
2023/11/09 02:22:22;;;;;;;3.07;2.30;;;7.50;1.00;;;;;;5152491;27;20538;-69
2023/11/09 02:24:51;;;;;;;2.73;1.97;;;7.50;1.00;;;;;;5145988;27;20475;-77
2023/11/09 02:27:18;;;;;;;2.53;2.30;;;7.50;1.00;;;;;;5144737;27;20478;-77
2023/11/09 02:29:44;;;;;;;2.97;2.10;;;7.50;1.00;;;;;;5139535;27;20456;-76
2023/11/09 02:32:11;;;;;;;2.63;2.27;;;7.50;1.00;;;;;;5131625;27;20465;-73
2023/11/09 02:34:38;;;;;;;2.23;2.03;;;7.50;1.00;;;;;;5126331;27;20452;-75
2023/11/09 02:37:07;;;;;;;3.63;2.23;;;7.50;1.00;;;;;;5147688;27;20484;-75
2023/11/09 02:39:34;;;;;;;4.90;2.10;;;7.60;1.00;;;;;;5131549;27;20984;-78
2023/11/09 02:42:03;;;;;;;3.27;1.90;;;7.60;1.00;;;;;;5136471;27;20585;-75
2023/11/09 02:44:30;;;;;;;2.50;2.30;;;7.50;1.00;;;;;;5143458;27;20456;-76
2023/11/09 02:46:57;;;;;;;2.83;2.17;;;7.60;1.00;;;;;;5153645;27;20466;-75
2023/11/09 02:49:24;;;;;;;2.23;1.97;;;7.50;1.00;;;;;;5146979;27;20464;-76
2023/11/09 02:51:52;;;;;;;2.97;2.07;;;7.50;1.00;;;;;;5132742;27;20490;-76
2023/11/09 02:54:19;;;;;;;3.37;2.67;;;7.50;1.00;;;;;;5125690;27;21650;-76
2023/11/09 02:56:46;;;;;;;2.13;2.03;;;7.50;1.00;;;;;;5132486;27;20458;-76
2023/11/09 02:59:14;;;;;;;2.80;2.10;;;7.40;1.00;;;;;;5128677;27;20484;-77
2023/11/09 03:01:41;;;;;;;2.70;2.03;;;7.50;1.00;;;;;;5140646;27;20233;-76
2023/11/09 03:04:10;;;;;;;2.73;2.00;;;7.50;1.00;;;;;;5150316;27;20452;-78
2023/11/09 03:06:37;;;;;;;2.33;2.10;;;7.40;1.00;;;;;;5142731;27;20507;-75
2023/11/09 03:09:04;;;;;;;3.30;2.40;;;7.30;1.00;;;;;;5147975;27;20538;-75
2023/11/09 03:11:31;;;;;;;3.40;2.20;;;7.40;1.00;;;;;;5147980;27;21047;-76
2023/11/09 03:14:00;;;;;;;3.33;2.07;;;7.40;1.00;;;;;;5132985;27;20538;-75
2023/11/09 03:16:28;;;;;;;3.30;1.87;;;7.40;1.00;;;;;;5129595;27;20468;-76
2023/11/09 03:18:55;;;;;;;2.10;1.90;;;7.40;1.00;;;;;;5144102;27;21238;-76
2023/11/09 03:21:22;;;;;;;2.00;1.80;;;7.40;1.00;;;;;;5142909;27;21265;-75
2023/11/09 03:23:50;;;;;;;2.67;2.20;;;7.40;1.00;;;;;;5152100;27;20769;-76
2023/11/09 03:26:18;;;;;;;2.67;2.27;;;7.50;1.00;;;;;;5132397;27;21791;-76
2023/11/09 03:28:44;;;;;;;2.07;1.97;;;7.50;1.00;;;;;;5131328;27;21000;-76
2023/11/09 03:31:11;;;;;;;2.17;1.87;;;7.60;1.00;;;;;;5132741;27;20551;-76
2023/11/09 03:33:40;;;;;;;2.23;2.00;;;7.60;1.00;;;;;;5129693;27;20468;-70
2023/11/09 03:36:07;;;;;;;3.27;1.93;;;7.70;1.00;;;;;;5129507;27;21056;-70
2023/11/09 03:38:34;;;;;;;2.30;2.10;;;7.70;1.00;;;;;;5129560;27;21043;-69
2023/11/09 03:41:02;;;;;;;3.43;1.83;;;7.70;1.00;;;;;;5144741;27;20971;-70
2023/11/09 03:43:29;;;;;;;3.20;2.50;;;7.70;1.00;;;;;;5141046;27;20460;-70
2023/11/09 03:45:56;;;;;;;2.27;2.03;;;7.90;1.00;;;;;;5143957;27;20475;-71
2023/11/09 03:48:23;;;;;;;2.73;1.87;;;7.90;1.00;;;;;;5129614;27;20464;-71
2023/11/09 03:50:51;;;;;;;1.90;1.80;;;7.90;1.00;;;;;;5129404;27;20457;-72
2023/11/09 03:53:18;;;;;;;2.90;1.80;;;8.00;1.00;;;;;;5128086;27;20948;-73
2023/11/09 03:55:45;;;;;;;2.10;1.90;;;7.90;1.00;;;;;;5128547;27;20491;-69
2023/11/09 03:58:12;;;;;;;3.23;2.17;;;8.00;1.00;;;;;;5130171;27;20591;-71
2023/11/09 04:00:39;;;;;;;2.03;1.83;;;8.10;1.00;;;;;;5149320;27;20483;-69
2023/11/09 04:03:06;;;;;;;2.20;2.00;;;8.10;1.00;;;;;;5149351;27;22088;-69
2023/11/09 04:05:34;;;;;;;2.97;2.00;;;8.10;1.00;;;;;;5127089;27;20472;-68
2023/11/09 04:08:02;;;;;;;2.37;2.10;;;8.20;1.00;;;;;;5127681;27;20457;-69
2023/11/09 04:10:29;;;;;;;2.67;1.80;;;8.30;1.00;;;;;;5130930;27;21958;-68
2023/11/09 04:12:56;;;;;;;2.90;2.23;;;8.30;1.00;;;;;;5145485;27;21320;-71
2023/11/09 04:15:23;;;;;;;2.17;1.93;;;8.30;1.00;;;;;;5127694;27;20984;-69
2023/11/09 04:17:50;;;;;;;2.23;2.03;;;8.30;1.00;;;;;;5128522;27;20593;-70
2023/11/09 04:20:18;;;;;;;3.33;1.97;;;8.40;1.00;;;;;;5127890;27;20824;-69
2023/11/09 04:22:45;;;;;;;1.90;1.80;;;8.40;1.00;;;;;;5131674;27;20539;-69
2023/11/09 04:25:14;;;;;;;2.33;1.87;;;8.40;1.00;;;;;;5138098;27;20467;-68
2023/11/09 04:27:42;;;;;;;1.93;1.63;;;8.50;1.00;;;;;;5129629;27;20488;-69
2023/11/09 04:30:10;;;;;;;2.53;1.43;;;8.50;1.00;;;;;;5144162;27;20840;-69
2023/11/09 04:32:39;;;;;;;2.30;2.10;;;8.60;1.00;;;;;;5137594;27;21209;-70
2023/11/09 04:35:06;;;;;;;2.93;1.60;;;8.60;1.00;;;;;;5135724;27;20472;-70
2023/11/09 04:37:35;;;;;;;2.13;1.83;;;8.70;1.00;;;;;;5140527;27;20448;-71
2023/11/09 04:40:12;;;;;;;1.73;1.33;;;8.70;1.00;;;;;;5149124;27;20555;-70
2023/11/09 04:42:40;;;;;;;2.33;2.13;;;8.70;1.00;;;;;;5138415;27;21640;-77
2023/11/09 04:45:11;;;;;;;1.77;1.43;;;8.80;1.00;;;;;;5126150;27;20556;-68
2023/11/09 04:47:41;;;;;;;2.03;1.77;;;8.90;1.00;;;;;;5129547;27;20516;-70
2023/11/09 04:50:13;;;;;;;2.17;1.70;;;8.90;1.00;;;;;;5131371;27;20461;-69
2023/11/09 04:52:44;;;;;;;2.40;2.20;;;8.90;1.00;;;;;;5132300;27;20448;-71
2023/11/09 04:55:14;;;;;;;1.93;1.70;;;9.00;1.00;;;;;;5129379;27;20476;-70
2023/11/09 05:08:41;;;;;;;1.47;1.30;;;9.20;1.00;;;;;;5127158;27;20928;-69
2023/11/09 05:11:11;;;;;;;2.33;1.70;;;9.20;1.00;;;;;;5124938;27;20468;-74
2023/11/09 05:13:40;;;;;;;3.30;1.40;;;9.20;1.00;;;;;;5128415;27;20503;-70
2023/11/09 05:16:08;;;;;;;2.43;1.57;;;9.20;1.00;;;;;;5141953;27;20564;-70
2023/11/09 05:18:35;;;;;;;1.70;1.60;;;9.20;1.00;;;;;;5145088;27;20448;-69
2023/11/09 05:21:02;;;;;;;1.60;1.40;;;9.20;1.00;;;;;;5127740;27;20549;-70
2023/11/09 05:23:29;;;;;;;1.87;1.60;;;9.20;1.00;;;;;;5125891;27;21193;-69
2023/11/09 05:25:57;;;;;;;2.10;1.53;;;9.20;1.00;;;;;;5127748;27;20481;-72
2023/11/09 05:28:23;;;;;;;2.90;1.53;;;9.20;1.00;;;;;;5141501;27;20510;-70
2023/11/09 05:30:52;;;;;;;2.20;1.90;;;9.20;1.00;;;;;;5148167;27;20467;-70
2023/11/09 05:33:19;;;;;;;2.47;1.27;;;9.30;1.00;;;;;;5147458;27;20491;-69
2023/11/09 05:35:46;;;;;;;2.67;1.20;;;9.20;1.00;;;;;;5136201;27;20538;-69
2023/11/09 05:38:13;;;;;;;2.40;1.50;;;9.20;1.00;;;;;;5133927;27;20516;-70
2023/11/09 05:40:43;;;;;;;1.60;1.50;;;9.20;1.00;;;;;;5151638;27;20470;-70
2023/11/09 05:43:11;;;;;;;2.13;1.93;;;9.30;1.00;;;;;;5131716;27;20507;-68
2023/11/09 05:45:38;;;;;;;3.40;3.03;;;9.30;1.00;;;;;;5122628;27;20953;-72
2023/11/09 05:48:07;;;;;;;1.53;1.40;;;9.30;1.00;;;;;;5122794;27;20449;-71
2023/11/09 05:50:34;;;;;;;1.67;1.27;;;9.40;1.00;;;;;;5122918;27;20502;-70
2023/11/09 05:53:01;;;;;;;1.77;1.30;;;9.50;1.00;;;;;;5140280;27;20459;-70
2023/11/09 05:55:30;;;;;;;4.20;1.40;;;9.40;1.00;;;;;;5135341;27;20469;-75
2023/11/09 05:57:58;;;;;;;2.43;1.80;;;9.50;1.00;;;;;;5125199;27;20540;-73
2023/11/09 06:00:26;;;;;;;3.43;1.50;;;9.50;1.00;;;;;;5124768;27;20548;-73
2023/11/09 06:02:53;;;;;;;3.70;1.90;;;9.50;1.00;;;;;;5124599;27;20503;-74
2023/11/09 06:05:24;;;;;;;3.60;1.53;;;9.50;1.00;;;;;;5121659;27;20694;-74
2023/11/09 06:07:53;;;;;;;5.13;3.27;;;9.50;1.00;;;;;;5059012;27;1779834;-75
2023/11/09 06:10:20;;;;;;;2.60;2.40;;;9.40;1.00;;;;;;5127221;27;20317;-74
2023/11/09 06:12:47;;;;;;;1.80;1.70;;;9.40;1.00;;;;;;5123220;27;20452;-74
2023/11/09 06:15:15;;;;;;;3.17;1.80;;;9.50;1.00;;;;;;5129298;27;20521;-74
2023/11/09 06:17:43;;;;;;;3.23;2.03;;;9.40;1.00;;;;;;5128700;27;21217;-73
2023/11/09 06:20:14;;;;;;;1.70;1.60;;;9.40;1.00;;;;;;5128599;27;20472;-73
2023/11/09 06:22:43;;;;;;;2.57;1.93;;;9.50;1.00;;;;;;5140755;27;20978;-72
2023/11/09 06:25:11;;;;;;;2.57;2.13;;;9.40;1.00;;;;;;5151065;27;21056;-74
2023/11/09 06:27:38;;;;;;;1.67;1.53;;;9.50;1.00;;;;;;5144996;27;21693;-74
2023/11/09 06:30:07;;;;;;;2.50;1.63;;;9.60;1.00;;;;;;5122915;27;20465;-73
2023/11/09 06:32:34;;;;;;;2.60;1.53;;;9.60;1.00;;;;;;5124990;27;21190;-72
2023/11/09 06:35:03;;;;;;;2.53;1.60;;;9.60;1.00;;;;;;5124616;27;20860;-71
2023/11/09 06:37:31;;;;;;;4.87;2.37;;;9.60;1.00;;;;;;5121845;27;20872;-71
2023/11/09 06:40:00;;;;;;;2.83;2.00;;;9.60;1.00;;;;;;5122220;27;20563;-72
2023/11/09 06:42:29;;;;;;;1.80;1.70;;;9.70;1.00;;;;;;5141434;27;20467;-73
2023/11/09 06:44:57;;;;;;;2.97;1.37;;;9.70;1.00;;;;;;5136635;27;20475;-72
2023/11/09 06:47:24;;;;;;;2.07;1.37;;;9.70;1.00;;;;;;5125334;27;20561;-73
2023/11/09 06:49:51;;;;;;;3.80;1.67;;;9.80;1.00;;;;;;5142271;27;20495;-73
2023/11/09 06:52:18;;;;;;;5.93;2.40;;;9.70;1.00;;;;;;5123401;27;20510;-72
2023/11/09 06:54:45;;;;;;;4.83;1.63;;;9.80;1.00;;;;;;5123370;27;20475;-72
2023/11/09 06:57:14;;;;;;;1.60;1.50;;;9.80;1.00;;;;;;5123781;27;20586;-73
2023/11/09 06:59:41;;;;;;;2.27;1.63;;;9.90;1.00;;;;;;5145666;27;20565;-75
2023/11/09 07:02:08;;;;;;;7.63;2.00;;;9.90;1.00;;;;;;5132028;27;20558;-72
2023/11/09 07:04:35;;;;;;;3.07;1.50;;;10.00;1.00;;;;;;5129802;27;20556;-69
2023/11/09 07:07:02;;;;;;;1.60;1.50;;;10.00;1.00;;;;;;5129117;27;20965;-68
2023/11/09 07:09:29;;;;;;;1.93;1.40;;;10.00;1.00;;;;;;5129215;27;20460;-66
2023/11/09 07:11:56;;;;;;;3.53;2.03;;;10.00;1.00;;;;;;5132261;27;20495;-72
2023/11/09 07:14:24;;;;;;;2.43;2.07;;;10.10;1.00;;;;;;5131617;27;20559;-68
2023/11/09 07:16:52;;;;;;;1.50;1.40;;;10.10;1.00;;;;;;5129310;27;20481;-69
2023/11/09 07:19:19;;;;;;;2.83;2.63;;;10.10;1.00;;;;;;5134564;27;20459;-68
2023/11/09 07:21:46;;;;;;;3.47;1.87;;;10.20;1.00;;;;;;5128991;27;20457;-71
2023/11/09 07:24:14;;;;;;;1.83;1.40;;;10.20;1.00;;;;;;5133822;27;20533;-68
2023/11/09 07:26:41;;;;;;;3.90;2.13;;;10.30;1.00;;;;;;5129106;27;20456;-73
2023/11/09 07:29:10;;;;;;;2.00;1.73;;;10.30;1.00;;;;;;5145595;27;20489;-70
2023/11/09 07:31:40;;;;;;;2.00;1.77;;;10.30;1.00;;;;;;5137956;27;20448;-68
2023/11/09 07:34:07;;;;;;;1.97;1.70;;;10.20;1.00;;;;;;5145720;27;21326;-70
2023/11/09 07:36:34;;;;;;;2.40;2.10;;;10.20;1.00;;;;;;5133545;27;20568;-75
2023/11/09 07:39:03;;;;;;;2.60;1.60;;;10.30;1.00;;;;;;5130584;27;21752;-72
2023/11/09 07:41:30;;;;;;;2.30;1.33;;;10.40;1.00;;;;;;5132394;27;20469;-74
2023/11/09 07:43:58;;;;;;;3.03;2.20;;;10.40;1.00;;;;;;5128508;27;20456;-73
2023/11/09 07:46:28;;;;;;;2.03;1.57;;;10.50;1.00;;;;;;5128287;27;20527;-75
2023/11/09 07:48:59;;;;;;;2.10;1.80;;;10.40;1.00;;;;;;5130046;27;20991;-71
2023/11/09 07:51:26;;;;;;;4.60;1.80;;;10.50;1.00;;;;;;5125988;27;20460;-72
2023/11/09 07:53:55;;;;;;;2.47;1.50;;;10.60;1.00;;;;;;5128905;27;20562;-69
2023/11/09 07:56:23;;;;;;;2.80;1.67;;;10.60;1.00;;;;;;5138937;27;20973;-69
2023/11/09 07:58:50;;;;;;;3.47;1.30;;;10.60;1.00;;;;;;5138493;27;20456;-69
2023/11/09 08:01:17;;;;;;;1.83;1.60;;;10.70;1.00;;;;;;5134367;27;20476;-69
2023/11/09 08:03:45;;;;;;;1.90;1.60;;;10.70;1.00;;;;;;5149432;27;20517;-69
2023/11/09 08:06:14;;;;;;;1.73;1.60;;;10.70;1.00;;;;;;5136357;27;20984;-69
2023/11/09 08:08:41;;;;;;;2.07;1.70;;;10.80;1.00;;;;;;5139906;27;20455;-70
2023/11/09 08:11:08;;;;;;;12.93;2.60;;;10.90;1.00;;;;;;5134334;27;20453;-70
2023/11/09 08:13:35;;;;;;;2.20;1.73;;;11.00;1.00;;;;;;5134563;27;20455;-75
2023/11/09 08:16:02;;;;;;;3.00;1.70;;;11.00;1.00;;;;;;5136827;27;20930;-78
2023/11/09 08:18:29;;;;;;;2.53;1.60;;;11.00;1.00;;;;;;5130612;27;21189;-75
2023/11/09 08:20:56;;;;;;;2.63;1.90;;;11.00;1.00;;;;;;5148036;27;21193;-80
2023/11/09 08:23:24;;;;;;;2.60;1.97;;;11.00;1.00;;;;;;5128996;27;20485;-76
2023/11/09 08:25:53;;;;;;;2.90;1.70;;;11.00;1.00;;;;;;5126921;27;20472;-76
2023/11/09 08:28:20;;;;;;;1.70;1.60;;;11.00;1.00;;;;;;5129249;27;21289;-74
2023/11/09 08:30:47;;;;;;;3.70;1.57;;;11.00;1.00;;;;;;5127147;27;21040;-75
2023/11/09 08:33:21;;;;;;;2.60;1.77;;;11.00;1.00;;;;;;5133312;27;21289;-74
2023/11/09 08:35:48;;;;;;;2.13;1.50;;;11.10;1.00;;;;;;5153652;27;20532;-77
2023/11/09 08:38:15;;;;;;;2.73;1.60;;;11.20;1.00;;;;;;5150063;27;21046;-79
2023/11/09 08:40:45;;;;;;;1.90;1.40;;;11.30;1.00;;;;;;5146282;27;20579;-78
2023/11/09 08:43:12;;;;;;;5.23;2.07;;;11.40;1.00;;;;;;5140336;27;20477;-80
2023/11/09 08:45:42;;;;;;;2.27;1.80;;;11.50;1.00;;;;;;5129296;27;20553;-75
2023/11/09 08:48:09;;;;;;;2.83;1.60;;;11.60;1.00;;;;;;5131166;27;20498;-77
2023/11/09 08:50:38;;;;;;;3.83;1.93;;;11.70;1.00;;;;;;5128128;27;21083;-72
2023/11/09 08:53:05;;;;;;;3.00;1.73;;;11.80;1.00;;;;;;5130007;27;21011;-78
2023/11/09 08:55:32;;;;;;;1.70;1.60;;;11.70;1.00;;;;;;5129161;27;20528;-73
2023/11/09 08:58:01;;;;;;;2.60;1.50;;;11.60;1.00;;;;;;5134948;27;20501;-74
2023/11/09 09:00:28;;;;;;;1.90;1.30;;;11.60;1.00;;;;;;5129626;27;20470;-73
2023/11/09 09:02:57;;;;;;;2.03;1.67;;;11.70;1.00;;;;;;5131299;27;20470;-78
2023/11/09 09:05:25;;;;;;;1.90;1.60;;;11.80;1.00;;;;;;5129642;27;20456;-75
2023/11/09 09:07:54;;;;;;;2.67;1.60;;;11.90;1.00;;;;;;5123351;27;20582;-75
2023/11/09 09:10:22;;;;;;;2.97;1.73;;;11.90;1.00;;;;;;5119344;27;21190;-77
2023/11/09 09:12:51;;;;;;;3.77;1.43;;;11.90;1.00;;;;;;5131705;27;20473;-74
2023/11/09 09:15:20;;;;;;;3.10;1.73;;;11.90;1.00;;;;;;5137008;27;20876;-78
2023/11/09 09:17:48;;;;;;;2.43;1.30;;;11.80;1.00;;;;;;5152301;27;20496;-76
2023/11/09 09:20:19;;;;;;;1.83;1.57;;;11.90;1.00;;;;;;5131080;27;20898;-77
2023/11/09 09:22:48;;;;;;;3.13;1.33;;;12.00;1.00;;;;;;5137304;27;20466;-78
2023/11/09 09:25:16;;;;;;;1.63;1.53;;;12.00;1.00;;;;;;5136047;27;20461;-70
2023/11/09 09:27:46;;;;;;;2.77;1.47;;;11.90;1.00;;;;;;5132681;27;20453;-71
2023/11/09 09:30:17;;;;;;;2.10;1.60;;;11.90;1.00;;;;;;5126347;27;20454;-73
2023/11/09 09:32:47;;;;;;;1.40;1.30;;;12.00;1.00;;;;;;5151635;27;20534;-71
2023/11/09 09:35:20;;;;;;;3.00;1.60;;;12.00;1.00;;;;;;5146114;27;20939;-75
2023/11/09 09:37:48;;;;;;;1.43;1.33;;;11.90;1.00;;;;;;5127680;27;20440;-72
2023/11/09 09:40:16;;;;;;;1.53;1.43;;;12.00;1.00;;;;;;5124662;27;20492;-71
2023/11/09 09:42:46;;;;;;;3.47;1.63;;;12.10;1.00;;;;;;5138732;27;20470;-71
2023/11/09 09:45:16;;;;;;;3.00;2.03;;;12.20;1.00;;;;;;5131984;27;20839;-72
2023/11/09 09:47:48;;;;;;;3.63;2.30;;;12.30;1.00;;;;;;5133590;27;20462;-74
2023/11/09 09:50:16;;;;;;;2.20;1.60;;;12.50;1.00;;;;;;5127512;27;20540;-72
2023/11/09 09:52:46;;;;;;;2.13;1.50;;;12.50;1.00;;;;;;5127381;27;20519;-69
2023/11/09 09:55:17;;;;;;;5.47;2.23;;;12.70;1.00;;;;;;5126571;27;20455;-74
2023/11/09 09:57:45;;;;;;;3.60;2.13;;;12.60;1.00;;;;;;5128280;27;20999;-70
2023/11/09 10:00:23;;;;;;;4.37;2.30;;;12.60;1.00;;;;;;5126647;27;20491;-74
2023/11/09 10:02:55;;;;;;;1.97;1.57;;;12.70;1.00;;;;;;5147545;27;20473;-73
2023/11/09 10:05:24;;;;;;;1.63;1.40;;;12.70;1.00;;;;;;5145243;27;20442;-73
2023/11/09 10:08:03;;;;;;;2.60;1.50;;;12.70;1.00;;;;;;5144941;27;20514;-71
2023/11/09 10:10:32;;;;;;;1.80;1.70;;;12.80;1.00;;;;;;5125805;27;20458;-72
2023/11/09 10:13:00;;;;;;;1.93;1.30;;;12.90;1.00;;;;;;5127254;27;20478;-71
2023/11/09 10:15:27;;;;;;;1.53;1.20;;;12.90;1.00;;;;;;5135149;27;20576;-72
2023/11/09 10:17:56;;;;;;;1.13;1.03;;;13.00;1.00;;;;;;5142728;27;20573;-71
2023/11/09 10:20:24;;;;;;;2.33;1.40;;;13.10;1.00;;;;;;5127222;27;20453;-72
2023/11/09 10:22:53;;;;;;;2.90;1.40;;;12.90;1.00;;;;;;5131114;27;20552;-72
2023/11/09 10:25:26;;;;;;;1.67;1.40;;;12.80;1.00;;;;;;5127924;27;20541;-73
2023/11/09 10:27:56;;;;;;;6.33;1.73;;;12.80;1.00;;;;;;5126269;27;20460;-73
2023/11/09 10:30:25;;;;;;;2.03;1.37;;;12.90;1.00;;;;;;5124941;27;20999;-73
2023/11/09 10:33:03;;;;;;;1.87;1.50;;;12.90;1.00;;;;;;5147273;27;21015;-70
2023/11/09 10:35:31;;;;;;;2.40;1.90;;;12.90;1.00;;;;;;5136745;27;20543;-69
2023/11/09 10:37:58;;;;;;;2.13;1.50;;;12.90;1.00;;;;;;5143238;27;20445;-71
2023/11/09 10:40:28;;;;;;;3.83;1.90;;;13.00;1.00;;;;;;5129708;27;20472;-72
2023/11/09 10:42:59;;;;;;;2.83;1.50;;;13.10;1.00;;;;;;5131865;27;20977;-71
2023/11/09 10:45:30;;;;;;;2.53;1.30;;;13.00;1.00;;;;;;5132061;27;21720;-73
2023/11/09 10:47:59;;;;;;;4.47;1.77;;;13.00;1.00;;;;;;5127563;27;20465;-71
2023/11/09 10:50:30;;;;;;;2.10;1.80;;;13.10;1.00;;;;;;5130244;27;20972;-71
2023/11/09 10:53:00;;;;;;;3.07;1.90;;;13.10;1.00;;;;;;5128045;27;20498;-72
2023/11/09 10:55:30;;;;;;;3.67;2.03;;;13.20;1.00;;;;;;5126728;27;20904;-71
2023/11/09 10:58:05;;;;;;;1.77;1.67;;;13.10;1.00;;;;;;5130773;27;20465;-72
2023/11/09 11:00:34;;;;;;;2.27;1.97;;;13.10;1.00;;;;;;5124344;27;20507;-74
2023/11/09 11:03:08;;;;;;;2.00;1.20;;;13.10;1.00;;;;;;5130405;27;20470;-72
2023/11/09 11:05:43;;;;;;;3.00;2.00;;;13.00;1.00;;;;;;5125489;27;20438;-72
2023/11/09 11:08:15;;;;;;;1.60;1.50;;;13.00;1.00;;;;;;5126431;27;20626;-72
2023/11/09 11:10:51;;;;;;;5.20;2.30;;;13.00;1.00;;;;;;5132681;27;20460;-73
2023/11/09 11:13:20;;;;;;;2.80;1.83;;;13.00;1.00;;;;;;5138577;27;20477;-73
2023/11/09 11:16:10;;;;;;;2.27;1.40;;;12.90;1.00;;;;;;5127835;27;21305;-76
2023/11/09 11:18:56;;;;;;;2.37;2.17;;;12.90;1.00;;;;;;5147406;27;20540;-74
2023/11/09 11:21:41;;;;;;;3.77;2.00;;;12.80;1.00;;;;;;5148872;27;20953;-73
2023/11/09 11:24:36;;;;;;;2.57;1.80;;;12.80;1.00;;;;;;5142833;27;20599;-75
2023/11/09 11:27:14;;;;;;;4.90;2.50;;;12.80;1.00;;;;;;5135150;27;20501;-75
2023/11/09 11:29:49;;;;;;;4.20;1.70;;;12.70;1.00;;;;;;5133641;27;20461;-79
2023/11/09 11:32:21;;;;;;;3.20;2.10;;;12.80;1.00;;;;;;5154018;27;20899;-77
2023/11/09 11:34:54;;;;;;;1.83;1.37;;;12.80;1.00;;;;;;5129349;27;20461;-76
2023/11/09 11:37:28;;;;;;;2.77;1.70;;;12.80;1.00;;;;;;5143654;27;20573;-72
2023/11/09 11:39:55;;;;;;;1.37;1.27;;;12.80;1.00;;;;;;5143053;27;21059;-73
2023/11/09 11:42:25;;;;;;;1.67;1.53;;;12.80;1.00;;;;;;5137644;27;20546;-74
2023/11/09 11:44:55;;;;;;;2.50;1.70;;;12.80;1.00;;;;;;5140771;27;21011;-71
2023/11/09 11:47:23;;;;;;;1.63;1.43;;;12.80;1.00;;;;;;5128257;27;20544;-70
2023/11/09 11:49:50;;;;;;;1.80;1.70;;;12.90;1.00;;;;;;5129283;27;20530;-71
2023/11/09 11:52:21;;;;;;;2.23;1.60;;;12.90;1.00;;;;;;5137889;27;20468;-73
2023/11/09 11:54:52;;;;;;;1.37;1.27;;;13.00;1.00;;;;;;5133271;27;20458;-71
2023/11/09 11:57:19;;;;;;;2.93;1.67;;;13.00;1.00;;;;;;5127835;27;20451;-71
2023/11/09 12:00:03;;;;;;;4.23;2.03;;;13.00;1.00;;;;;;5139637;27;20459;-70
2023/11/09 12:02:30;;;;;;;3.30;1.57;;;13.10;1.00;;;;;;5131141;27;20496;-69
2023/11/09 12:04:58;;;;;;;1.87;1.67;;;13.10;1.00;;;;;;5135101;27;20574;-72
2023/11/09 12:07:27;;;;;;;1.40;1.30;;;13.30;1.00;;;;;;5142402;27;20778;-69
2023/11/09 12:09:57;;;;;;;2.80;1.67;;;13.50;1.00;;;;;;5123555;27;20478;-71
2023/11/09 12:12:26;;;;;;;2.37;1.60;;;13.50;1.00;;;;;;5126972;27;20459;-71
2023/11/09 12:14:54;;;;;;;4.27;1.43;;;13.60;1.00;;;;;;5142505;27;20471;-71
2023/11/09 12:17:23;;;;;;;1.93;1.80;;;13.70;1.00;;;;;;5132082;27;20564;-71
2023/11/09 12:19:51;;;;;;;1.93;1.73;;;13.80;1.00;;;;;;5137959;27;20547;-71
2023/11/09 12:22:18;;;;;;;2.07;1.70;;;13.90;1.00;;;;;;5145606;27;20479;-72
2023/11/09 12:24:46;;;;;;;3.63;1.73;;;13.90;1.00;;;;;;5144808;27;20482;-71
2023/11/09 12:27:14;;;;;;;2.17;1.70;;;13.90;1.00;;;;;;5144731;27;20564;-70
2023/11/09 12:29:42;;;;;;;3.03;1.33;;;14.00;1.00;;;;;;5127185;27;20464;-72
2023/11/09 12:32:11;;;;;;;3.17;1.50;;;13.90;1.00;;;;;;5122340;27;20555;-69
2023/11/09 12:34:39;;;;;;;1.60;1.10;;;13.80;1.00;;;;;;5129778;27;20595;-71
2023/11/09 12:37:12;;;;;;;2.43;1.60;;;13.70;1.00;;;;;;5132066;27;20516;-68
2023/11/09 12:39:41;;;;;;;2.50;1.40;;;13.70;1.00;;;;;;5120773;27;20491;-72
2023/11/09 12:42:11;;;;;;;2.13;1.70;;;13.70;1.00;;;;;;5146299;27;20450;-69
2023/11/09 12:44:42;;;;;;;1.87;1.30;;;13.70;1.00;;;;;;5145514;27;20473;-69
2023/11/09 12:47:15;;;;;;;3.80;1.83;;;13.50;1.00;;;;;;5144710;27;20553;-72
2023/11/09 12:49:44;;;;;;;3.57;2.50;;;13.50;1.00;;;;;;5125889;27;20523;-71
2023/11/09 12:52:11;;;;;;;3.40;2.10;;;13.50;1.00;;;;;;5124764;27;20490;-68
2023/11/09 12:54:40;;;;;;;3.77;1.80;;;13.40;1.00;;;;;;5125580;27;21039;-69
2023/11/09 12:57:07;;;;;;;1.43;1.33;;;13.30;1.00;;;;;;5124279;27;20474;-71
2023/11/09 12:59:41;;;;;;;2.10;1.47;;;13.40;1.00;;;;;;5112724;27;23351;-70
2023/11/09 13:02:17;;;;;;;1.93;1.73;;;13.40;1.00;;;;;;5125793;27;20958;-70
2023/11/09 13:04:45;;;;;;;3.70;1.67;;;13.30;1.00;;;;;;5132768;27;20465;-71
2023/11/09 13:07:16;;;;;;;2.50;1.50;;;13.30;1.00;;;;;;5144827;27;20954;-70
2023/11/09 13:09:46;;;;;;;1.77;1.60;;;13.30;1.00;;;;;;5133727;27;20949;-71
2023/11/09 13:12:32;;;;;;;2.20;1.50;;;13.40;1.00;;;;;;5123293;27;20473;-70
2023/11/09 13:15:11;;;;;;;2.83;1.60;;;13.40;1.00;;;;;;5144253;27;20531;-70
2023/11/09 13:17:50;;;;;;;2.77;1.90;;;13.40;1.00;;;;;;5136348;27;20439;-70
2023/11/09 13:20:30;;;;;;;2.23;1.90;;;13.30;1.00;;;;;;5132846;27;20460;-71
2023/11/09 13:23:04;;;;;;;3.30;1.73;;;13.30;1.00;;;;;;5129445;27;20454;-69